Time;durP1;ratioP1;P1;durP2;ratioP2;P2;SDS_P1;SDS_P2;PMS_P1;PMS_P2;Temp;Humidity;BMP_temperature;BMP_pressure;BME280_temperature;BME280_humidity;BME280_pressure;Samples;Min_cycle;Max_cycle;Signal;HPM_P1;HPM_P2
2023/04/15 00:00:20;;;;;;;;;;;;;;;;;;5088930;28;20437;-71
2023/04/15 00:02:47;;;;;;;;;;;;;;;;;;5098947;28;20389;-71
2023/04/15 00:05:14;;;;;;;;;;;;;;;;;;5094465;28;19930;-70
2023/04/15 00:07:41;;;;;;;;;;;;;;;;;;5095292;28;20295;-70
2023/04/15 00:10:08;;;;;;;;;;;;;;;;;;5103133;28;19928;-71
2023/04/15 00:12:35;;;;;;;;;;;;;;;;;;5091697;28;19928;-71
2023/04/15 00:15:02;;;;;;;;;;;;;;;;;;5093509;28;19924;-70
2023/04/15 00:17:29;;;;;;;;;;;;;;;;;;5095144;28;19924;-70
2023/04/15 00:19:58;;;;;;;;;;;;;;;;;;5087958;28;19971;-70
2023/04/15 00:22:25;;;;;;;;;;;;;;;;;;5091432;28;19932;-70
2023/04/15 00:24:52;;;;;;;;;;;;;;;;;;5094173;28;19931;-70
2023/04/15 00:27:19;;;;;;;;;;;;;;;;;;5094633;28;19924;-70
2023/04/15 00:29:47;;;;;;;;;;;;;;;;;;5092187;28;19956;-70
2023/04/15 00:32:14;;;;;;;;;;;;;;;;;;5093497;28;19924;-70
2023/04/15 00:34:41;;;;;;;;;;;;;;;;;;5095153;28;19924;-70
2023/04/15 00:37:08;;;;;;;;;;;;;;;;;;5093629;28;19924;-70
2023/04/15 00:39:35;;;;;;;;;;;;;;;;;;5092613;28;19925;-70
2023/04/15 00:42:02;;;;;;;;;;;;;;;;;;5094699;28;19930;-69
2023/04/15 00:44:29;;;;;;;;;;;;;;;;;;5098825;28;19930;-69
2023/04/15 00:46:56;;;;;;;;;;;;;;;;;;5099501;28;19924;-70
2023/04/15 00:49:23;;;;;;;;;;;;;;;;;;5092203;28;20012;-69
2023/04/15 00:51:50;;;;;;;;;;;;;;;;;;5092794;28;20305;-70
2023/04/15 00:54:17;;;;;;;;;;;;;;;;;;5092576;28;19977;-69
2023/04/15 00:56:44;;;;;;;;;;;;;;;;;;5094577;28;19924;-70
2023/04/15 00:59:11;;;;;;;;;;;;;;;;;;5091681;28;19943;-70
2023/04/15 01:01:38;;;;;;;;;;;;;;;;;;5099675;28;19930;-69
2023/04/15 01:04:05;;;;;;;;;;;;;;;;;;5093001;28;20012;-69
2023/04/15 01:06:32;;;;;;;;;;;;;;;;;;5091967;28;19962;-70
2023/04/15 01:08:59;;;;;;;;;;;;;;;;;;5093176;28;19930;-69
2023/04/15 01:11:26;;;;;;;;;;;;;;;;;;5095199;28;20306;-69
2023/04/15 01:13:53;;;;;;;;;;;;;;;;;;5093585;28;20424;-69
2023/04/15 01:16:20;;;;;;;;;;;;;;;;;;5090948;28;19924;-69
2023/04/15 01:18:47;;;;;;;;;;;;;;;;;;5093921;28;19968;-70
2023/04/15 01:21:14;;;;;;;;;;;;;;;;;;5092939;28;20027;-70
2023/04/15 01:23:42;;;;;;;;;;;;;;;;;;5090704;28;19924;-70
2023/04/15 01:26:09;;;;;;;;;;;;;;;;;;5088782;28;20337;-70
2023/04/15 01:28:36;;;;;;;;;;;;;;;;;;5093153;28;20058;-70
2023/04/15 01:31:03;;;;;;;;;;;;;;;;;;5092244;28;20352;-69
2023/04/15 01:33:30;;;;;;;;;;;;;;;;;;5093180;28;19932;-70
2023/04/15 01:35:57;;;;;;;;;;;;;;;;;;5093770;28;19924;-70
2023/04/15 01:38:24;;;;;;;;;;;;;;;;;;5092810;28;19930;-69
2023/04/15 01:40:51;;;;;;;;;;;;;;;;;;5092057;28;20387;-69
2023/04/15 01:43:19;;;;;;;;;;;;;;;;;;5091565;28;19928;-69
2023/04/15 01:45:46;;;;;;;;;;;;;;;;;;5092695;28;20043;-70
2023/04/15 01:48:13;;;;;;;;;;;;;;;;;;5097042;28;19931;-70
2023/04/15 01:50:39;;;;;;;;;;;;;;;;;;5091100;28;19954;-70
2023/04/15 01:53:07;;;;;;;;;;;;;;;;;;5093627;28;20303;-70
2023/04/15 01:55:34;;;;;;;;;;;;;;;;;;5092420;28;20421;-70
2023/04/15 01:58:01;;;;;;;;;;;;;;;;;;5093387;28;19924;-69
2023/04/15 02:00:28;;;;;;;;;;;;;;;;;;5091093;28;19931;-69
2023/04/15 02:02:55;;;;;;;;;;;;;;;;;;5093409;28;19970;-71
2023/04/15 02:05:23;;;;;;;;;;;;;;;;;;5092640;28;19930;-69
2023/04/15 02:07:50;;;;;;;;;;;;;;;;;;5094248;28;19978;-69
2023/04/15 02:10:17;;;;;;;;;;;;;;;;;;5091496;28;19966;-69
2023/04/15 02:12:44;;;;;;;;;;;;;;;;;;5092241;28;19924;-69
2023/04/15 02:15:11;;;;;;;;;;;;;;;;;;5092982;28;20397;-69
2023/04/15 02:17:38;;;;;;;;;;;;;;;;;;5091326;28;19924;-72
2023/04/15 02:20:05;;;;;;;;;;;;;;;;;;5091712;28;19924;-69
2023/04/15 02:22:32;;;;;;;;;;;;;;;;;;5090552;28;19930;-69
2023/04/15 02:24:59;;;;;;;;;;;;;;;;;;5098097;28;19924;-70
2023/04/15 02:27:27;;;;;;;;;;;;;;;;;;5092263;28;20019;-70
2023/04/15 02:29:54;;;;;;;;;;;;;;;;;;5090382;28;20314;-69
2023/04/15 02:32:23;;;;;;;;;;;;;;;;;;5090346;28;20424;-69
2023/04/15 02:34:50;;;;;;;;;;;;;;;;;;5092215;28;20014;-69
2023/04/15 02:37:19;;;;;;;;;;;;;;;;;;5092332;28;20015;-69
2023/04/15 02:39:46;;;;;;;;;;;;;;;;;;5095866;28;19931;-71
2023/04/15 02:42:13;;;;;;;;;;;;;;;;;;5090152;28;19930;-70
2023/04/15 02:44:40;;;;;;;;;;;;;;;;;;5090882;28;20272;-70
2023/04/15 02:47:07;;;;;;;;;;;;;;;;;;5088874;28;19931;-69
2023/04/15 02:49:34;;;;;;;;;;;;;;;;;;5091485;28;20379;-69
2023/04/15 02:52:01;;;;;;;;;;;;;;;;;;5089169;28;19998;-70
2023/04/15 02:54:28;;;;;;;;;;;;;;;;;;5091546;28;19931;-69
2023/04/15 02:56:57;;;;;;;;;;;;;;;;;;5090448;28;23245;-69
2023/04/15 02:59:24;;;;;;;;;;;;;;;;;;5093406;28;20500;-69
2023/04/15 03:01:51;;;;;;;;;;;;;;;;;;5093556;28;19967;-69
2023/04/15 03:04:18;;;;;;;;;;;;;;;;;;5091491;28;19924;-69
2023/04/15 03:06:45;;;;;;;;;;;;;;;;;;5091539;28;19931;-69
2023/04/15 03:09:12;;;;;;;;;;;;;;;;;;5091600;28;19991;-69
2023/04/15 03:11:40;;;;;;;;;;;;;;;;;;5088698;28;20006;-70
2023/04/15 03:14:07;;;;;;;;;;;;;;;;;;5090357;28;20003;-69
2023/04/15 03:16:34;;;;;;;;;;;;;;;;;;5089625;28;19924;-70
2023/04/15 03:19:01;;;;;;;;;;;;;;;;;;5091339;28;19974;-70
2023/04/15 03:21:28;;;;;;;;;;;;;;;;;;5090245;28;19931;-69
2023/04/15 03:23:56;;;;;;;;;;;;;;;;;;5076256;28;20019;-71
2023/04/15 03:26:23;;;;;;;;;;;;;;;;;;5088645;28;19928;-71
2023/04/15 03:28:50;;;;;;;;;;;;;;;;;;5090883;28;20022;-71
2023/04/15 03:31:16;;;;;;;;;;;;;;;;;;5089402;28;20032;-71
2023/04/15 03:33:43;;;;;;;;;;;;;;;;;;5093013;28;19931;-71
2023/04/15 03:36:10;;;;;;;;;;;;;;;;;;5093690;28;19967;-70
2023/04/15 03:38:37;;;;;;;;;;;;;;;;;;5089746;28;19928;-69
2023/04/15 03:41:04;;;;;;;;;;;;;;;;;;5093460;28;19946;-70
2023/04/15 03:43:31;;;;;;;;;;;;;;;;;;5096486;28;19967;-69
2023/04/15 03:45:58;;;;;;;;;;;;;;;;;;5087036;28;19924;-70
2023/04/15 03:48:25;;;;;;;;;;;;;;;;;;5093058;28;19925;-70
2023/04/15 03:50:52;;;;;;;;;;;;;;;;;;5103553;28;19923;-69
2023/04/15 03:53:19;;;;;;;;;;;;;;;;;;5093733;28;20113;-70
2023/04/15 03:55:46;;;;;;;;;;;;;;;;;;5094730;28;19967;-70
2023/04/15 03:58:13;;;;;;;;;;;;;;;;;;5093683;28;19924;-71
2023/04/15 04:00:41;;;;;;;;;;;;;;;;;;5094971;28;19924;-69
2023/04/15 04:03:08;;;;;;;;;;;;;;;;;;5084661;28;19935;-72
2023/04/15 04:05:37;;;;;;;;;;;;;;;;;;5093272;28;19924;-71
2023/04/15 04:08:04;;;;;;;;;;;;;;;;;;5112759;28;20019;-69
2023/04/15 04:10:31;;;;;;;;;;;;;;;;;;5093655;28;20548;-69
2023/04/15 04:12:58;;;;;;;;;;;;;;;;;;5093510;28;20399;-70
2023/04/15 04:15:25;;;;;;;;;;;;;;;;;;5092776;28;20450;-69
2023/04/15 04:17:52;;;;;;;;;;;;;;;;;;5092098;28;19924;-70
2023/04/15 04:20:20;;;;;;;;;;;;;;;;;;5093294;28;19950;-70
2023/04/15 04:22:47;;;;;;;;;;;;;;;;;;5094474;28;20345;-70
2023/04/15 04:25:13;;;;;;;;;;;;;;;;;;5094143;28;19923;-70
2023/04/15 04:27:40;;;;;;;;;;;;;;;;;;5092178;28;20335;-70
2023/04/15 04:30:07;;;;;;;;;;;;;;;;;;5093753;28;20450;-70
2023/04/15 04:32:34;;;;;;;;;;;;;;;;;;5094429;28;20502;-70
2023/04/15 04:35:01;;;;;;;;;;;;;;;;;;5093719;28;19924;-70
2023/04/15 04:37:28;;;;;;;;;;;;;;;;;;5093044;28;19928;-69
2023/04/15 04:39:55;;;;;;;;;;;;;;;;;;5092843;28;19924;-70
2023/04/15 04:42:22;;;;;;;;;;;;;;;;;;5096122;28;19932;-69
2023/04/15 04:44:49;;;;;;;;;;;;;;;;;;5093573;28;20272;-69
2023/04/15 04:47:16;;;;;;;;;;;;;;;;;;5093129;28;20306;-70
2023/04/15 04:49:43;;;;;;;;;;;;;;;;;;5104780;28;19930;-69
2023/04/15 04:52:10;;;;;;;;;;;;;;;;;;5086574;28;20405;-69
2023/04/15 04:54:37;;;;;;;;;;;;;;;;;;5094173;28;20023;-69
2023/04/15 04:57:04;;;;;;;;;;;;;;;;;;5092939;28;19924;-70
2023/04/15 04:59:32;;;;;;;;;;;;;;;;;;5092488;28;20015;-69
2023/04/15 05:01:58;;;;;;;;;;;;;;;;;;5092767;28;19924;-70
2023/04/15 05:04:26;;;;;;;;;;;;;;;;;;5103162;28;19924;-69
2023/04/15 05:06:53;;;;;;;;;;;;;;;;;;5092058;28;19955;-69
2023/04/15 05:09:20;;;;;;;;;;;;;;;;;;5093579;28;19970;-69
2023/04/15 05:11:46;;;;;;;;;;;;;;;;;;5090789;28;20015;-69
2023/04/15 05:14:13;;;;;;;;;;;;;;;;;;5093342;28;19935;-69
2023/04/15 05:16:40;;;;;;;;;;;;;;;;;;5092404;28;19924;-69
2023/04/15 05:19:07;;;;;;;;;;;;;;;;;;5088261;28;19930;-69
2023/04/15 05:21:34;;;;;;;;;;;;;;;;;;5092079;28;19930;-69
2023/04/15 05:24:01;;;;;;;;;;;;;;;;;;5092181;28;19969;-69
2023/04/15 05:26:28;;;;;;;;;;;;;;;;;;5091475;28;20046;-69
2023/04/15 05:28:55;;;;;;;;;;;;;;;;;;5087948;28;19960;-70
2023/04/15 05:31:22;;;;;;;;;;;;;;;;;;5092116;28;19947;-70
2023/04/15 05:33:49;;;;;;;;;;;;;;;;;;5094321;28;19930;-71
2023/04/15 05:36:16;;;;;;;;;;;;;;;;;;5089562;28;20404;-76
2023/04/15 05:38:43;;;;;;;;;;;;;;;;;;5101789;28;20027;-74
2023/04/15 05:41:10;;;;;;;;;;;;;;;;;;5092164;28;20438;-71
2023/04/15 05:43:37;;;;;;;;;;;;;;;;;;5091471;28;19924;-72
2023/04/15 05:46:04;;;;;;;;;;;;;;;;;;5085655;28;19938;-71
2023/04/15 05:48:31;;;;;;;;;;;;;;;;;;5092151;28;19924;-71
2023/04/15 05:50:58;;;;;;;;;;;;;;;;;;5099070;28;20377;-71
2023/04/15 05:53:25;;;;;;;;;;;;;;;;;;5091526;28;19929;-71
2023/04/15 05:55:52;;;;;;;;;;;;;;;;;;5093086;28;19936;-72
2023/04/15 05:58:19;;;;;;;;;;;;;;;;;;5091731;28;19931;-71
2023/04/15 06:00:46;;;;;;;;;;;;;;;;;;5092465;28;19931;-71
2023/04/15 06:03:13;;;;;;;;;;;;;;;;;;5091434;28;19963;-70
2023/04/15 06:05:40;;;;;;;;;;;;;;;;;;5093453;28;19931;-71
2023/04/15 06:08:07;;;;;;;;;;;;;;;;;;5092289;28;19971;-71
2023/04/15 06:10:35;;;;;;;;;;;;;;;;;;5099677;28;19947;-71
2023/04/15 06:13:02;;;;;;;;;;;;;;;;;;5091555;28;19924;-71
2023/04/15 06:15:30;;;;;;;;;;;;;;;;;;5093794;28;19932;-71
2023/04/15 06:17:57;;;;;;;;;;;;;;;;;;5093221;28;19924;-71
2023/04/15 06:20:24;;;;;;;;;;;;;;;;;;5090997;28;19946;-71
2023/04/15 06:22:51;;;;;;;;;;;;;;;;;;5087405;28;19928;-71
2023/04/15 06:25:18;;;;;;;;;;;;;;;;;;5093448;28;20019;-71
2023/04/15 06:27:45;;;;;;;;;;;;;;;;;;5085787;28;19951;-71
2023/04/15 06:30:12;;;;;;;;;;;;;;;;;;5078244;28;19924;-72
2023/04/15 06:32:39;;;;;;;;;;;;;;;;;;5092495;28;19928;-70
2023/04/15 06:35:06;;;;;;;;;;;;;;;;;;5113347;28;20277;-73
2023/04/15 06:37:33;;;;;;;;;;;;;;;;;;5101270;28;20371;-72
2023/04/15 06:40:00;;;;;;;;;;;;;;;;;;5090955;28;19924;-72
2023/04/15 06:42:27;;;;;;;;;;;;;;;;;;5091872;28;20296;-73
2023/04/15 06:44:55;;;;;;;;;;;;;;;;;;5100644;28;20123;-72
2023/04/15 06:47:22;;;;;;;;;;;;;;;;;;5104692;28;19923;-72
2023/04/15 06:49:49;;;;;;;;;;;;;;;;;;5094341;28;20408;-73
2023/04/15 06:52:16;;;;;;;;;;;;;;;;;;5093691;28;20019;-73
2023/04/15 06:54:43;;;;;;;;;;;;;;;;;;5090456;28;19930;-73
2023/04/15 06:57:10;;;;;;;;;;;;;;;;;;5091578;28;19928;-73
2023/04/15 06:59:37;;;;;;;;;;;;;;;;;;5088001;28;19924;-72
2023/04/15 07:02:04;;;;;;;;;;;;;;;;;;5089530;28;19947;-73
2023/04/15 07:04:32;;;;;;;;;;;;;;;;;;5092241;28;19935;-73
2023/04/15 07:07:01;;;;;;;;;;;;;;;;;;5082528;28;20378;-73
2023/04/15 07:09:28;;;;;;;;;;;;;;;;;;5087459;28;19931;-73
2023/04/15 07:11:55;;;;;;;;;;;;;;;;;;5090013;28;20402;-73
2023/04/15 07:14:22;;;;;;;;;;;;;;;;;;5083892;28;20331;-73
2023/04/15 07:16:49;;;;;;;;;;;;;;;;;;5087437;28;20346;-72
2023/04/15 07:19:16;;;;;;;;;;;;;;;;;;5088690;28;20010;-72
2023/04/15 07:21:43;;;;;;;;;;;;;;;;;;5094741;28;19924;-73
2023/04/15 07:24:10;;;;;;;;;;;;;;;;;;5090343;28;19934;-73
2023/04/15 07:26:37;;;;;;;;;;;;;;;;;;5085138;28;19924;-72
2023/04/15 07:29:04;;;;;;;;;;;;;;;;;;5088741;28;19935;-72
2023/04/15 07:31:31;;;;;;;;;;;;;;;;;;5090879;28;20469;-72
2023/04/15 07:33:58;;;;;;;;;;;;;;;;;;5087651;28;19994;-73
2023/04/15 07:36:25;;;;;;;;;;;;;;;;;;5085566;28;19924;-73
2023/04/15 07:38:52;;;;;;;;;;;;;;;;;;5086643;28;19924;-73
2023/04/15 07:41:19;;;;;;;;;;;;;;;;;;5089298;28;20435;-73
2023/04/15 07:43:47;;;;;;;;;;;;;;;;;;5085136;28;20049;-73
2023/04/15 07:46:14;;;;;;;;;;;;;;;;;;5087774;28;19924;-73
2023/04/15 07:48:42;;;;;;;;;;;;;;;;;;5085644;28;19947;-73
2023/04/15 07:51:09;;;;;;;;;;;;;;;;;;5082036;28;19928;-74
2023/04/15 07:53:37;;;;;;;;;;;;;;;;;;5085769;28;19938;-74
2023/04/15 07:56:03;;;;;;;;;;;;;;;;;;5080028;28;19928;-72
2023/04/15 07:58:31;;;;;;;;;;;;;;;;;;5084229;28;19932;-74
2023/04/15 08:00:58;;;;;;;;;;;;;;;;;;5084048;28;19931;-74
2023/04/15 08:03:25;;;;;;;;;;;;;;;;;;5086908;28;20015;-72
2023/04/15 08:05:52;;;;;;;;;;;;;;;;;;5083100;28;20005;-74
2023/04/15 08:08:19;;;;;;;;;;;;;;;;;;5082655;28;19963;-75
2023/04/15 08:10:46;;;;;;;;;;;;;;;;;;5079986;28;19970;-74
2023/04/15 08:13:13;;;;;;;;;;;;;;;;;;5081737;28;20045;-74
2023/04/15 08:15:40;;;;;;;;;;;;;;;;;;5085747;28;19989;-75
2023/04/15 08:18:07;;;;;;;;;;;;;;;;;;5080543;28;20004;-75
2023/04/15 08:20:34;;;;;;;;;;;;;;;;;;5079302;28;19924;-77
2023/04/15 08:23:02;;;;;;;;;;;;;;;;;;5093789;28;20011;-75
2023/04/15 08:25:29;;;;;;;;;;;;;;;;;;5080197;28;19932;-75
2023/04/15 08:27:57;;;;;;;;;;;;;;;;;;5086224;28;19924;-74
2023/04/15 08:30:24;;;;;;;;;;;;;;;;;;5079149;28;19924;-73
2023/04/15 08:32:51;;;;;;;;;;;;;;;;;;5093497;28;19935;-73
2023/04/15 08:35:18;;;;;;;;;;;;;;;;;;5089715;28;19924;-73
2023/04/15 08:37:46;;;;;;;;;;;;;;;;;;5084031;28;19985;-73
2023/04/15 08:40:13;;;;;;;;;;;;;;;;;;5087514;28;19932;-72
2023/04/15 08:42:40;;;;;;;;;;;;;;;;;;5085716;28;19932;-72
2023/04/15 08:45:07;;;;;;;;;;;;;;;;;;5086044;28;19985;-72
2023/04/15 08:47:34;;;;;;;;;;;;;;;;;;5087049;28;20022;-72
2023/04/15 08:50:01;;;;;;;;;;;;;;;;;;5100778;28;19924;-72
2023/04/15 08:52:28;;;;;;;;;;;;;;;;;;5082220;28;19963;-73
2023/04/15 08:54:55;;;;;;;;;;;;;;;;;;5082534;28;20323;-73
2023/04/15 08:57:22;;;;;;;;;;;;;;;;;;5083000;28;20386;-71
2023/04/15 08:59:49;;;;;;;;;;;;;;;;;;5084019;28;19993;-69
2023/04/15 09:02:16;;;;;;;;;;;;;;;;;;5074630;28;19955;-70
2023/04/15 09:04:43;;;;;;;;;;;;;;;;;;5083018;28;20035;-69
2023/04/15 09:07:10;;;;;;;;;;;;;;;;;;5078233;28;19932;-70
2023/04/15 09:09:39;;;;;;;;;;;;;;;;;;5080512;28;19932;-69
2023/04/15 09:12:06;;;;;;;;;;;;;;;;;;5079840;28;19928;-69
2023/04/15 09:14:33;;;;;;;;;;;;;;;;;;5081353;28;19925;-70
2023/04/15 09:17:00;;;;;;;;;;;;;;;;;;5086964;28;19978;-69
2023/04/15 09:19:30;;;;;;;;;;;;;;;;;;5078926;28;19931;-69
2023/04/15 09:21:57;;;;;;;;;;;;;;;;;;5075999;28;20010;-69
2023/04/15 09:24:24;;;;;;;;;;;;;;;;;;5078281;28;19932;-69
2023/04/15 09:26:51;;;;;;;;;;;;;;;;;;5081009;28;19969;-71
2023/04/15 09:29:18;;;;;;;;;;;;;;;;;;5086796;28;19924;-70
2023/04/15 09:31:45;;;;;;;;;;;;;;;;;;5078970;28;19931;-71
2023/04/15 09:34:12;;;;;;;;;;;;;;;;;;5085345;28;19985;-70
2023/04/15 09:36:39;;;;;;;;;;;;;;;;;;5080063;28;20307;-71
2023/04/15 09:39:06;;;;;;;;;;;;;;;;;;5077804;28;19924;-70
2023/04/15 09:41:33;;;;;;;;;;;;;;;;;;5085617;28;19924;-71
2023/04/15 09:44:00;;;;;;;;;;;;;;;;;;5088382;28;19950;-70
2023/04/15 09:46:27;;;;;;;;;;;;;;;;;;5077909;28;20383;-69
2023/04/15 09:48:54;;;;;;;;;;;;;;;;;;5080117;28;20022;-69
2023/04/15 09:51:21;;;;;;;;;;;;;;;;;;5078671;28;19986;-69
2023/04/15 09:53:53;;;;;;;;;;;;;;;;;;5071408;28;19966;-71
2023/04/15 09:56:20;;;;;;;;;;;;;;;;;;5082185;28;19924;-72
2023/04/15 09:58:47;;;;;;;;;;;;;;;;;;5081033;28;20010;-71
2023/04/15 10:01:15;;;;;;;;;;;;;;;;;;5078621;28;20336;-71
2023/04/15 10:03:45;;;;;;;;;;;;;;;;;;5076978;28;19936;-70
2023/04/15 10:06:12;;;;;;;;;;;;;;;;;;5078698;28;19970;-70
2023/04/15 10:08:42;;;;;;;;;;;;;;;;;;5082466;28;20021;-72
2023/04/15 10:11:10;;;;;;;;;;;;;;;;;;5084535;28;20375;-70
2023/04/15 10:13:38;;;;;;;;;;;;;;;;;;5078544;28;20011;-72
2023/04/15 10:16:06;;;;;;;;;;;;;;;;;;5084088;28;19924;-71
2023/04/15 10:18:33;;;;;;;;;;;;;;;;;;5079336;28;19952;-72
2023/04/15 10:21:00;;;;;;;;;;;;;;;;;;5083119;28;19924;-71
2023/04/15 10:23:28;;;;;;;;;;;;;;;;;;5077865;28;20099;-71
2023/04/15 10:25:56;;;;;;;;;;;;;;;;;;5080437;28;19924;-71
2023/04/15 10:28:26;;;;;;;;;;;;;;;;;;5085674;28;19931;-71
2023/04/15 10:30:59;;;;;;;;;;;;;;;;;;5083187;28;20508;-69
2023/04/15 10:33:30;;;;;;;;;;;;;;;;;;5087437;28;19946;-71
2023/04/15 10:35:57;;;;;;;;;;;;;;;;;;5077762;28;19938;-71
2023/04/15 10:38:24;;;;;;;;;;;;;;;;;;5081738;28;19924;-71
2023/04/15 10:40:55;;;;;;;;;;;;;;;;;;5082979;28;19935;-71
2023/04/15 10:43:27;;;;;;;;;;;;;;;;;;5080270;28;19932;-71
2023/04/15 10:45:59;;;;;;;;;;;;;;;;;;5075468;28;19932;-72
2023/04/15 10:48:36;;;;;;;;;;;;;;;;;;5089986;28;19978;-72
2023/04/15 10:51:11;;;;;;;;;;;;;;;;;;5064884;28;19923;-73
2023/04/15 10:53:38;;;;;;;;;;;;;;;;;;5085744;28;19970;-72
2023/04/15 10:56:08;;;;;;;;;;;;;;;;;;5085146;28;20398;-71
2023/04/15 10:58:35;;;;;;;;;;;;;;;;;;5084787;28;19924;-72
2023/04/15 11:01:03;;;;;;;;;;;;;;;;;;5090202;28;19924;-72
2023/04/15 11:03:31;;;;;;;;;;;;;;;;;;5077500;28;19939;-73
2023/04/15 11:05:59;;;;;;;;;;;;;;;;;;5079967;28;19928;-72
2023/04/15 11:08:26;;;;;;;;;;;;;;;;;;5081607;28;19924;-71
2023/04/15 11:10:56;;;;;;;;;;;;;;;;;;5076599;28;19924;-72
2023/04/15 11:13:31;;;;;;;;;;;;;;;;;;5077733;28;19936;-72
2023/04/15 11:16:04;;;;;;;;;;;;;;;;;;5077986;28;20031;-73
2023/04/15 11:18:34;;;;;;;;;;;;;;;;;;5088790;28;19936;-73
2023/04/15 11:21:05;;;;;;;;;;;;;;;;;;5076864;28;19948;-72
2023/04/15 11:23:32;;;;;;;;;;;;;;;;;;5080064;28;20299;-71
2023/04/15 11:26:00;;;;;;;;;;;;;;;;;;5060368;28;19930;-73
2023/04/15 11:28:27;;;;;;;;;;;;;;;;;;5075338;28;20007;-72
2023/04/15 11:30:56;;;;;;;;;;;;;;;;;;5079820;28;20574;-72
2023/04/15 11:33:23;;;;;;;;;;;;;;;;;;5076761;28;20409;-72
2023/04/15 11:35:51;;;;;;;;;;;;;;;;;;5082629;28;20093;-72
2023/04/15 11:38:18;;;;;;;;;;;;;;;;;;5081685;28;20292;-73
2023/04/15 11:40:45;;;;;;;;;;;;;;;;;;5075571;28;20015;-72
2023/04/15 11:43:12;;;;;;;;;;;;;;;;;;5071125;28;20395;-72
2023/04/15 11:45:39;;;;;;;;;;;;;;;;;;5076261;28;19997;-71
2023/04/15 11:48:06;;;;;;;;;;;;;;;;;;5080030;28;20039;-71
2023/04/15 11:50:33;;;;;;;;;;;;;;;;;;5075102;28;20015;-71
2023/04/15 11:53:01;;;;;;;;;;;;;;;;;;5072781;28;20011;-71
2023/04/15 11:55:28;;;;;;;;;;;;;;;;;;5079233;28;19931;-70
2023/04/15 11:57:55;;;;;;;;;;;;;;;;;;5075389;28;20032;-71
2023/04/15 12:00:23;;;;;;;;;;;;;;;;;;5074521;28;19928;-72
2023/04/15 12:02:50;;;;;;;;;;;;;;;;;;5084755;28;19930;-72
2023/04/15 12:05:19;;;;;;;;;;;;;;;;;;5088323;28;19924;-72
2023/04/15 12:07:46;;;;;;;;;;;;;;;;;;5091473;28;20361;-72
2023/04/15 12:10:13;;;;;;;;;;;;;;;;;;5083692;28;20307;-71
2023/04/15 12:12:40;;;;;;;;;;;;;;;;;;5086518;28;20383;-71
2023/04/15 12:15:07;;;;;;;;;;;;;;;;;;5079834;28;19931;-73
2023/04/15 12:17:34;;;;;;;;;;;;;;;;;;5088279;28;20022;-73
2023/04/15 12:20:02;;;;;;;;;;;;;;;;;;5078112;28;20494;-69
2023/04/15 12:22:29;;;;;;;;;;;;;;;;;;5077783;28;19932;-71
2023/04/15 12:24:56;;;;;;;;;;;;;;;;;;5085910;28;19973;-70
2023/04/15 12:27:23;;;;;;;;;;;;;;;;;;5083591;28;19939;-70
2023/04/15 12:29:50;;;;;;;;;;;;;;;;;;5079523;28;20014;-70
2023/04/15 12:32:19;;;;;;;;;;;;;;;;;;5084428;28;20015;-71
2023/04/15 12:34:46;;;;;;;;;;;;;;;;;;5084400;28;19931;-70
2023/04/15 12:37:13;;;;;;;;;;;;;;;;;;5096792;28;19924;-71
2023/04/15 12:39:40;;;;;;;;;;;;;;;;;;5092003;28;19924;-70
2023/04/15 12:42:07;;;;;;;;;;;;;;;;;;5088461;28;19928;-70
2023/04/15 12:44:34;;;;;;;;;;;;;;;;;;5085475;28;19939;-70
2023/04/15 12:47:01;;;;;;;;;;;;;;;;;;5080709;28;19935;-70
2023/04/15 12:49:28;;;;;;;;;;;;;;;;;;5083924;28;20378;-71
2023/04/15 12:51:55;;;;;;;;;;;;;;;;;;5083991;28;20342;-70
2023/04/15 12:54:22;;;;;;;;;;;;;;;;;;5081334;28;20379;-70
2023/04/15 12:56:49;;;;;;;;;;;;;;;;;;5089351;28;20411;-71
2023/04/15 12:59:17;;;;;;;;;;;;;;;;;;5079456;28;19947;-70
2023/04/15 13:01:44;;;;;;;;;;;;;;;;;;5084322;28;20058;-70
2023/04/15 13:04:11;;;;;;;;;;;;;;;;;;5092879;28;19939;-70
2023/04/15 13:06:38;;;;;;;;;;;;;;;;;;5093180;28;19950;-70
2023/04/15 13:09:05;;;;;;;;;;;;;;;;;;5088466;28;19932;-70
2023/04/15 13:11:32;;;;;;;;;;;;;;;;;;5081927;28;20418;-71
2023/04/15 13:13:59;;;;;;;;;;;;;;;;;;5086791;28;19925;-71
2023/04/15 13:16:26;;;;;;;;;;;;;;;;;;5085209;28;19934;-71
2023/04/15 13:18:53;;;;;;;;;;;;;;;;;;5078591;28;19925;-71
2023/04/15 13:21:20;;;;;;;;;;;;;;;;;;5090557;28;20387;-71
2023/04/15 13:23:47;;;;;;;;;;;;;;;;;;5092030;28;19984;-71
2023/04/15 13:26:15;;;;;;;;;;;;;;;;;;5079509;28;19928;-70
2023/04/15 13:28:42;;;;;;;;;;;;;;;;;;5087468;28;19932;-71
2023/04/15 13:31:09;;;;;;;;;;;;;;;;;;5082818;28;19924;-71
2023/04/15 13:33:35;;;;;;;;;;;;;;;;;;5084114;28;19928;-71
2023/04/15 13:36:02;;;;;;;;;;;;;;;;;;5089099;28;20375;-71
2023/04/15 13:38:29;;;;;;;;;;;;;;;;;;5090903;28;20339;-71
2023/04/15 13:40:56;;;;;;;;;;;;;;;;;;5086616;28;19931;-71
2023/04/15 13:43:23;;;;;;;;;;;;;;;;;;5087176;28;19925;-71
2023/04/15 13:45:50;;;;;;;;;;;;;;;;;;5087958;28;20018;-72
2023/04/15 13:48:17;;;;;;;;;;;;;;;;;;5078499;28;20023;-71
2023/04/15 13:50:44;;;;;;;;;;;;;;;;;;5083307;28;20023;-70
2023/04/15 13:53:11;;;;;;;;;;;;;;;;;;5089310;28;19966;-71
2023/04/15 13:55:40;;;;;;;;;;;;;;;;;;5084369;28;19924;-71
2023/04/15 13:58:07;;;;;;;;;;;;;;;;;;5084860;28;19924;-71
2023/04/15 14:00:34;;;;;;;;;;;;;;;;;;5088780;28;19924;-71
2023/04/15 14:03:01;;;;;;;;;;;;;;;;;;5090279;28;20010;-71
2023/04/15 14:05:28;;;;;;;;;;;;;;;;;;5088013;28;19931;-71
2023/04/15 14:07:55;;;;;;;;;;;;;;;;;;5090190;28;19924;-71
2023/04/15 14:10:22;;;;;;;;;;;;;;;;;;5087117;28;20023;-71
2023/04/15 14:12:49;;;;;;;;;;;;;;;;;;5087737;28;20010;-71
2023/04/15 14:15:16;;;;;;;;;;;;;;;;;;5079487;28;19924;-71
2023/04/15 14:17:43;;;;;;;;;;;;;;;;;;5091363;28;20320;-71
2023/04/15 14:20:10;;;;;;;;;;;;;;;;;;5092674;28;19928;-71
2023/04/15 14:22:37;;;;;;;;;;;;;;;;;;5091501;28;20014;-71
2023/04/15 14:25:05;;;;;;;;;;;;;;;;;;5090049;28;20026;-70
2023/04/15 14:27:32;;;;;;;;;;;;;;;;;;5089499;28;19950;-71
2023/04/15 14:41:08;;;;;;;;;;;;;;;;;;5095504;27;19930;-70
2023/04/15 14:43:35;;;;;;;;;;;;;;;;;;5082363;28;20375;-70
2023/04/15 14:46:02;;;;;;;;;;;;;;;;;;5082091;28;19931;-71
2023/04/15 14:48:29;;;;;;;;;;;;;;;;;;5081115;28;19972;-70
2023/04/15 14:50:56;;;;;;;;;;;;;;;;;;5078458;28;19924;-71
2023/04/15 14:53:23;;;;;;;;;;;;;;;;;;5079833;28;20421;-70
2023/04/15 14:55:50;;;;;;;;;;;;;;;;;;5081428;28;19932;-72
2023/04/15 14:58:17;;;;;;;;;;;;;;;;;;5082283;28;19925;-70
2023/04/15 15:00:47;;;;;;;;;;;;;;;;;;5085732;28;19928;-71
2023/04/15 15:03:14;;;;;;;;;;;;;;;;;;5078181;28;20346;-71
2023/04/15 15:05:41;;;;;;;;;;;;;;;;;;5087314;28;19931;-69
2023/04/15 15:08:08;;;;;;;;;;;;;;;;;;5087454;28;19924;-69
2023/04/15 15:10:35;;;;;;;;;;;;;;;;;;5082659;28;20011;-70
2023/04/15 15:13:02;;;;;;;;;;;;;;;;;;5084966;28;19994;-69
2023/04/15 15:15:29;;;;;;;;;;;;;;;;;;5078980;28;19932;-70
2023/04/15 15:17:56;;;;;;;;;;;;;;;;;;5075339;28;19933;-70
2023/04/15 15:20:23;;;;;;;;;;;;;;;;;;5077745;28;20014;-70
2023/04/15 15:22:50;;;;;;;;;;;;;;;;;;5072762;28;20019;-70
2023/04/15 15:25:17;;;;;;;;;;;;;;;;;;5082863;28;20387;-70
2023/04/15 15:27:44;;;;;;;;;;;;;;;;;;5083861;28;19924;-70
2023/04/15 15:30:11;;;;;;;;;;;;;;;;;;5084003;28;19924;-70
2023/04/15 15:32:38;;;;;;;;;;;;;;;;;;5082738;28;19931;-70
2023/04/15 15:35:05;;;;;;;;;;;;;;;;;;5085743;28;19978;-70
2023/04/15 15:37:32;;;;;;;;;;;;;;;;;;5084064;28;20346;-70
2023/04/15 15:40:00;;;;;;;;;;;;;;;;;;5076813;28;20092;-70
2023/04/15 15:42:27;;;;;;;;;;;;;;;;;;5070638;28;19932;-71
2023/04/15 15:44:54;;;;;;;;;;;;;;;;;;5064555;28;19931;-70
2023/04/15 15:47:21;;;;;;;;;;;;;;;;;;5066364;28;19968;-70
2023/04/15 15:49:48;;;;;;;;;;;;;;;;;;5068465;28;20023;-70
2023/04/15 15:52:15;;;;;;;;;;;;;;;;;;5072247;28;20015;-70
2023/04/15 15:54:42;;;;;;;;;;;;;;;;;;5070668;28;19933;-70
2023/04/15 15:57:10;;;;;;;;;;;;;;;;;;5063394;28;20245;-70
2023/04/15 15:59:39;;;;;;;;;;;;;;;;;;5064249;28;19925;-69
2023/04/15 16:02:06;;;;;;;;;;;;;;;;;;5065424;28;19940;-72
2023/04/15 16:04:34;;;;;;;;;;;;;;;;;;5068138;28;19931;-72
2023/04/15 16:07:01;;;;;;;;;;;;;;;;;;5066868;28;19928;-72
2023/04/15 16:09:28;;;;;;;;;;;;;;;;;;5062900;28;19933;-73
2023/04/15 16:11:55;;;;;;;;;;;;;;;;;;5067578;28;20291;-73
2023/04/15 16:14:22;;;;;;;;;;;;;;;;;;5069499;28;20024;-72
2023/04/15 16:16:49;;;;;;;;;;;;;;;;;;5065077;28;20372;-73
2023/04/15 16:19:16;;;;;;;;;;;;;;;;;;5065782;28;19933;-72
2023/04/15 16:21:43;;;;;;;;;;;;;;;;;;5071432;28;20458;-73
2023/04/15 16:24:10;;;;;;;;;;;;;;;;;;5070378;28;19934;-73
2023/04/15 16:26:37;;;;;;;;;;;;;;;;;;5073287;28;19975;-73
2023/04/15 16:29:04;;;;;;;;;;;;;;;;;;5070691;28;20019;-72
2023/04/15 16:31:31;;;;;;;;;;;;;;;;;;5070850;28;19925;-73
2023/04/15 16:33:58;;;;;;;;;;;;;;;;;;5068874;28;20010;-72
2023/04/15 16:36:26;;;;;;;;;;;;;;;;;;5066547;28;19924;-72
2023/04/15 16:38:53;;;;;;;;;;;;;;;;;;5064008;28;19940;-72
2023/04/15 16:41:20;;;;;;;;;;;;;;;;;;5068784;28;19931;-72
2023/04/15 16:43:47;;;;;;;;;;;;;;;;;;5071101;28;20000;-72
2023/04/15 16:46:14;;;;;;;;;;;;;;;;;;5068533;28;19931;-72
2023/04/15 16:48:41;;;;;;;;;;;;;;;;;;5067233;28;20018;-73
2023/04/15 16:51:08;;;;;;;;;;;;;;;;;;5067307;28;20019;-74
2023/04/15 16:53:35;;;;;;;;;;;;;;;;;;5067981;28;20018;-73
2023/04/15 16:56:02;;;;;;;;;;;;;;;;;;5064969;28;19933;-72